Time;durP1;ratioP1;P1;durP2;ratioP2;P2;SDS_P1;SDS_P2;PMS_P1;PMS_P2;Temp;Humidity;BMP_temperature;BMP_pressure;BME280_temperature;BME280_humidity;BME280_pressure;Samples;Min_cycle;Max_cycle;Signal;HPM_P1;HPM_P2
2021/09/14 00:02:25;;;;;;;;;;;23.90;61.40;;;;;;5073476;28;19925;-68
2021/09/14 00:04:54;;;;;;;;;;;23.90;61.40;;;;;;5073139;28;19930;-67
2021/09/14 00:07:21;;;;;;;;;;;23.90;61.40;;;;;;5073053;28;20007;-67
2021/09/14 00:09:48;;;;;;;;;;;23.90;61.40;;;;;;5088456;28;19924;-67
2021/09/14 00:12:15;;;;;;;;;;;23.90;61.40;;;;;;5076467;28;19924;-68
2021/09/14 00:14:42;;;;;;;;;;;23.90;61.30;;;;;;5074660;28;20000;-67
2021/09/14 00:17:09;;;;;;;;;;;23.90;61.30;;;;;;5071675;28;20396;-67
2021/09/14 00:19:36;;;;;;;;;;;23.90;61.30;;;;;;5115935;27;19928;-68
2021/09/14 00:22:03;;;;;;;;;;;23.90;61.30;;;;;;5080309;28;19974;-66
2021/09/14 00:24:30;;;;;;;;;;;23.90;61.30;;;;;;5081201;28;20387;-67
2021/09/14 00:26:57;;;;;;;;;;;23.90;61.30;;;;;;5089481;28;19924;-67
2021/09/14 00:29:24;;;;;;;;;;;23.90;61.30;;;;;;5123265;27;19959;-66
2021/09/14 00:31:50;;;;;;;;;;;23.90;61.30;;;;;;5084009;28;20008;-66
2021/09/14 00:34:17;;;;;;;;;;;23.90;62.10;;;;;;5071725;28;19971;-67
2021/09/14 00:36:44;;;;;;;;;;;23.90;61.30;;;;;;5073453;28;20348;-66
2021/09/14 00:39:11;;;;;;;;;;;23.90;61.30;;;;;;5072471;28;19959;-66
2021/09/14 00:41:38;;;;;;;;;;;23.90;61.30;;;;;;5075467;28;20334;-67
2021/09/14 00:44:05;;;;;;;;;;;23.90;61.30;;;;;;5075194;28;19956;-67
2021/09/14 00:46:32;;;;;;;;;;;23.90;61.30;;;;;;5074201;28;19981;-67
2021/09/14 00:48:59;;;;;;;;;;;23.90;61.30;;;;;;5072715;28;19931;-67
2021/09/14 00:51:26;;;;;;;;;;;23.90;61.30;;;;;;5071700;28;19975;-68
2021/09/14 00:53:53;;;;;;;;;;;23.90;61.30;;;;;;5070795;28;19925;-67
2021/09/14 00:56:20;;;;;;;;;;;23.90;61.30;;;;;;5071449;28;20385;-66
2021/09/14 00:58:47;;;;;;;;;;;23.90;61.30;;;;;;5074025;28;19975;-66
2021/09/14 01:01:14;;;;;;;;;;;23.90;61.30;;;;;;5087570;28;19924;-66
2021/09/14 01:03:41;;;;;;;;;;;23.90;61.30;;;;;;5089350;28;19999;-66
2021/09/14 01:06:08;;;;;;;;;;;23.90;61.30;;;;;;5075474;28;20380;-66
2021/09/14 01:08:36;;;;;;;;;;;23.90;61.20;;;;;;5085655;28;20007;-67
2021/09/14 01:11:03;;;;;;;;;;;23.90;61.30;;;;;;5090659;28;20015;-66
2021/09/14 01:13:30;;;;;;;;;;;23.90;61.30;;;;;;5089222;28;19924;-68
2021/09/14 01:16:04;;;;;;;;;;;23.90;61.30;;;;;;5079622;28;19971;-66
2021/09/14 01:18:31;;;;;;;;;;;23.90;61.30;;;;;;5081688;28;20390;-67
2021/09/14 01:21:00;;;;;;;;;;;23.90;61.30;;;;;;5081847;28;20400;-67
2021/09/14 01:23:26;;;;;;;;;;;23.90;61.30;;;;;;5072362;28;20008;-66
2021/09/14 01:25:53;;;;;;;;;;;23.90;61.30;;;;;;5072536;28;19971;-67
2021/09/14 01:28:20;;;;;;;;;;;23.90;61.30;;;;;;5077494;28;20015;-67
2021/09/14 01:30:47;;;;;;;;;;;23.90;61.30;;;;;;5084140;28;19998;-66
2021/09/14 01:33:15;;;;;;;;;;;23.90;61.30;;;;;;5075760;28;19974;-66
2021/09/14 01:35:43;;;;;;;;;;;23.90;61.30;;;;;;5087066;28;19980;-66
2021/09/14 01:38:10;;;;;;;;;;;23.90;62.00;;;;;;5072243;28;19924;-66
2021/09/14 01:40:37;;;;;;;;;;;23.90;61.30;;;;;;5073388;28;19971;-66
2021/09/14 01:43:05;;;;;;;;;;;23.90;61.30;;;;;;5073104;28;19924;-66
2021/09/14 01:45:32;;;;;;;;;;;23.90;61.30;;;;;;5072002;28;19971;-66
2021/09/14 01:48:00;;;;;;;;;;;23.90;61.30;;;;;;5073706;28;19978;-67
2021/09/14 01:50:26;;;;;;;;;;;23.90;61.30;;;;;;5073242;28;19963;-66
2021/09/14 01:52:54;;;;;;;;;;;23.90;61.30;;;;;;5072302;28;20011;-67
2021/09/14 01:55:21;;;;;;;;;;;23.90;61.30;;;;;;5072940;28;19931;-66
2021/09/14 01:57:50;;;;;;;;;;;23.90;61.30;;;;;;5072029;28;20015;-66
2021/09/14 02:00:21;;;;;;;;;;;23.90;61.30;;;;;;5071784;28;20376;-66
2021/09/14 02:58:56;;;;;;;;;;;23.90;61.20;;;;;;5074580;28;20019;-66
2021/09/14 03:01:23;;;;;;;;;;;23.90;61.20;;;;;;5086672;28;20010;-67
2021/09/14 03:03:52;;;;;;;;;;;23.90;61.20;;;;;;5092190;28;19954;-67
2021/09/14 03:06:19;;;;;;;;;;;23.90;61.20;;;;;;5123226;27;19928;-67
2021/09/14 03:08:49;;;;;;;;;;;23.90;61.20;;;;;;5082877;28;20012;-66
2021/09/14 03:11:18;;;;;;;;;;;23.90;61.20;;;;;;5082212;28;19993;-67
2021/09/14 03:13:45;;;;;;;;;;;23.80;61.10;;;;;;5091081;28;20348;-67
2021/09/14 03:16:14;;;;;;;;;;;23.90;61.20;;;;;;5092280;28;19969;-66
2021/09/14 03:18:41;;;;;;;;;;;23.90;61.20;;;;;;5090806;28;19931;-66
2021/09/14 03:21:09;;;;;;;;;;;23.90;61.20;;;;;;5087525;28;19928;-67
2021/09/14 03:23:36;;;;;;;;;;;23.90;61.20;;;;;;5073867;28;19924;-66
2021/09/14 03:26:03;;;;;;;;;;;23.90;61.20;;;;;;5075260;28;20012;-66
2021/09/14 03:28:30;;;;;;;;;;;23.90;61.20;;;;;;5074647;28;20010;-66
2021/09/14 03:30:57;;;;;;;;;;;23.90;61.20;;;;;;5075870;28;19932;-66
2021/09/14 03:33:24;;;;;;;;;;;23.90;61.20;;;;;;5092163;28;20427;-68
2021/09/14 03:35:51;;;;;;;;;;;23.90;61.20;;;;;;5074227;28;19924;-66
2021/09/14 03:38:18;;;;;;;;;;;23.80;61.10;;;;;;5074379;28;19934;-66
2021/09/14 03:40:45;;;;;;;;;;;23.80;61.10;;;;;;5089879;28;19970;-67
2021/09/14 03:43:17;;;;;;;;;;;23.80;61.10;;;;;;5074643;28;19931;-67
2021/09/14 03:45:46;;;;;;;;;;;23.90;61.20;;;;;;5072972;28;19971;-66
2021/09/14 03:48:13;;;;;;;;;;;23.90;61.20;;;;;;5073798;28;19931;-67
2021/09/14 03:50:40;;;;;;;;;;;23.90;61.20;;;;;;5074637;28;19931;-66
2021/09/14 03:53:08;;;;;;;;;;;23.90;61.20;;;;;;5073355;28;19925;-66
2021/09/14 03:55:35;;;;;;;;;;;23.90;61.10;;;;;;5073077;28;19964;-66
2021/09/14 03:58:02;;;;;;;;;;;23.90;61.20;;;;;;5074932;28;20315;-67
2021/09/14 04:00:29;;;;;;;;;;;23.80;61.10;;;;;;5074561;28;19970;-66
2021/09/14 04:03:04;;;;;;;;;;;23.80;61.10;;;;;;5073433;28;19925;-66
2021/09/14 04:11:14;;;;;;;;;;;23.80;61.10;;;;;;5018468;28;19972;-66
2021/09/14 04:13:41;;;;;;;;;;;23.90;61.20;;;;;;5031563;28;20008;-66
2021/09/14 04:16:08;;;;;;;;;;;23.90;61.10;;;;;;5032237;28;20472;-66
2021/09/14 04:18:35;;;;;;;;;;;23.90;61.10;;;;;;5043357;28;20008;-66
2021/09/14 04:21:02;;;;;;;;;;;23.90;61.10;;;;;;5048142;28;20011;-67
2021/09/14 04:23:29;;;;;;;;;;;23.90;61.10;;;;;;5042576;28;19928;-66
2021/09/14 04:25:55;;;;;;;;;;;23.90;61.10;;;;;;5046793;28;19931;-67
2021/09/14 04:28:23;;;;;;;;;;;23.90;61.10;;;;;;5039704;28;20393;-66
2021/09/14 04:30:50;;;;;;;;;;;23.90;61.10;;;;;;5030740;28;19925;-67
2021/09/14 04:33:17;;;;;;;;;;;23.90;61.10;;;;;;5030803;28;19925;-66
2021/09/14 04:35:44;;;;;;;;;;;23.90;61.10;;;;;;5031426;28;19925;-66
2021/09/14 04:38:11;;;;;;;;;;;23.90;61.10;;;;;;5030596;28;19932;-66
2021/09/14 04:40:37;;;;;;;;;;;23.90;61.10;;;;;;5031841;28;19964;-66
2021/09/14 04:43:04;;;;;;;;;;;23.90;61.10;;;;;;5029392;28;19929;-67
2021/09/14 04:45:31;;;;;;;;;;;23.90;61.10;;;;;;5065388;28;19933;-66
2021/09/14 04:47:58;;;;;;;;;;;23.90;61.10;;;;;;5090896;28;20320;-66
2021/09/14 04:50:25;;;;;;;;;;;23.90;61.10;;;;;;5090447;28;19999;-66
2021/09/14 04:52:52;;;;;;;;;;;23.90;61.10;;;;;;5066518;28;19965;-66
2021/09/14 04:55:19;;;;;;;;;;;23.90;61.00;;;;;;5061608;28;19928;-67
2021/09/14 04:57:46;;;;;;;;;;;23.90;61.00;;;;;;5090982;28;19975;-66
2021/09/14 05:00:14;;;;;;;;;;;23.90;61.00;;;;;;5090535;28;20455;-66
2021/09/14 05:02:41;;;;;;;;;;;23.90;61.00;;;;;;5073716;28;19974;-66
2021/09/14 05:05:09;;;;;;;;;;;23.90;61.00;;;;;;5072538;28;20406;-66
2021/09/14 05:07:36;;;;;;;;;;;23.90;61.00;;;;;;5073656;28;19928;-66
2021/09/14 05:10:03;;;;;;;;;;;23.90;61.00;;;;;;5072498;28;20510;-67
2021/09/14 05:12:30;;;;;;;;;;;23.90;60.90;;;;;;5085245;28;20019;-66
2021/09/14 05:14:57;;;;;;;;;;;23.90;60.90;;;;;;5090492;28;19963;-66
2021/09/14 05:17:24;;;;;;;;;;;23.90;60.90;;;;;;5078030;28;19925;-66
2021/09/14 05:19:51;;;;;;;;;;;23.90;60.80;;;;;;5072427;28;19968;-66
2021/09/14 05:22:29;;;;;;;;;;;23.90;60.80;;;;;;5072296;28;20339;-66
2021/09/14 05:24:56;;;;;;;;;;;23.90;60.80;;;;;;5081651;28;20011;-66
2021/09/14 05:27:22;;;;;;;;;;;23.90;60.70;;;;;;5081506;28;19975;-66
2021/09/14 05:29:50;;;;;;;;;;;23.90;60.70;;;;;;5072211;28;19971;-66
2021/09/14 05:32:19;;;;;;;;;;;23.90;60.70;;;;;;5073626;28;19925;-66
2021/09/14 05:34:47;;;;;;;;;;;23.90;60.70;;;;;;5073449;28;19924;-68
2021/09/14 05:37:14;;;;;;;;;;;23.90;60.70;;;;;;5078885;28;20368;-66
2021/09/14 05:39:42;;;;;;;;;;;24.00;60.70;;;;;;5088786;28;19931;-66
2021/09/14 05:42:09;;;;;;;;;;;24.00;60.70;;;;;;5074485;28;20008;-67
2021/09/14 05:44:36;;;;;;;;;;;24.00;60.70;;;;;;5076035;28;19924;-66
2021/09/14 05:47:03;;;;;;;;;;;24.00;60.70;;;;;;5075991;28;20011;-66
2021/09/14 05:49:30;;;;;;;;;;;24.00;60.60;;;;;;5077209;28;19930;-66
2021/09/14 05:51:58;;;;;;;;;;;24.00;60.60;;;;;;5092710;28;19944;-66
2021/09/14 05:54:25;;;;;;;;;;;24.00;60.50;;;;;;5090973;28;20010;-66
2021/09/14 05:56:52;;;;;;;;;;;24.00;60.50;;;;;;5074522;28;20018;-67
2021/09/14 05:59:19;;;;;;;;;;;24.00;60.40;;;;;;5074245;28;19928;-67
2021/09/14 06:01:46;;;;;;;;;;;24.10;60.50;;;;;;5093691;28;20004;-66
2021/09/14 06:04:13;;;;;;;;;;;24.10;60.50;;;;;;5077196;28;19924;-66
2021/09/14 06:06:40;;;;;;;;;;;24.10;60.40;;;;;;5074532;28;20004;-66
2021/09/14 06:09:07;;;;;;;;;;;24.10;60.40;;;;;;5077118;28;19924;-67
2021/09/14 06:11:34;;;;;;;;;;;24.10;60.40;;;;;;5120675;27;19928;-66
2021/09/14 06:14:01;;;;;;;;;;;24.10;60.30;;;;;;5088856;28;20398;-66
2021/09/14 06:16:29;;;;;;;;;;;24.10;60.20;;;;;;5075595;28;20257;-66
2021/09/14 06:18:56;;;;;;;;;;;24.10;60.10;;;;;;5077468;28;19970;-66
2021/09/14 06:21:23;;;;;;;;;;;24.20;60.10;;;;;;5076262;28;19924;-66
2021/09/14 06:23:50;;;;;;;;;;;24.20;60.10;;;;;;5075152;28;20334;-66
2021/09/14 06:26:17;;;;;;;;;;;24.20;60.00;;;;;;5074869;28;20398;-66
2021/09/14 06:28:45;;;;;;;;;;;24.20;60.00;;;;;;5082674;28;19946;-67
2021/09/14 06:31:13;;;;;;;;;;;24.20;60.00;;;;;;5087877;28;20458;-67
2021/09/14 06:33:40;;;;;;;;;;;24.30;60.00;;;;;;5080671;28;20439;-67
2021/09/14 06:36:07;;;;;;;;;;;24.30;60.00;;;;;;5087943;28;19924;-66
2021/09/14 06:38:35;;;;;;;;;;;24.30;59.90;;;;;;5074976;28;20291;-66
2021/09/14 06:41:02;;;;;;;;;;;24.30;59.90;;;;;;5076301;28;19924;-66
2021/09/14 06:43:29;;;;;;;;;;;24.30;59.90;;;;;;5076293;28;20305;-67
2021/09/14 06:45:55;;;;;;;;;;;24.30;59.80;;;;;;5076389;28;20342;-67
2021/09/14 06:48:23;;;;;;;;;;;24.40;59.80;;;;;;5056859;28;20443;-66
2021/09/14 06:50:50;;;;;;;;;;;24.40;59.80;;;;;;5093940;28;20072;-66
2021/09/14 06:53:19;;;;;;;;;;;24.40;59.80;;;;;;5077961;28;19943;-66
2021/09/14 06:55:46;;;;;;;;;;;24.40;60.40;;;;;;5057630;28;20016;-67
2021/09/14 06:58:13;;;;;;;;;;;24.40;59.70;;;;;;5092088;28;19998;-66
2021/09/14 07:00:40;;;;;;;;;;;24.40;59.70;;;;;;5075822;28;19932;-66
2021/09/14 07:03:07;;;;;;;;;;;24.40;59.70;;;;;;5075699;28;20323;-67
2021/09/14 07:05:34;;;;;;;;;;;24.40;59.60;;;;;;5074312;28;20016;-66
2021/09/14 07:08:01;;;;;;;;;;;24.40;59.50;;;;;;5075749;28;19978;-66
2021/09/14 07:10:28;;;;;;;;;;;24.50;59.50;;;;;;5076852;28;20366;-66
2021/09/14 07:12:55;;;;;;;;;;;24.50;59.50;;;;;;5074152;28;19966;-66
2021/09/14 07:15:21;;;;;;;;;;;24.50;59.40;;;;;;5074132;28;20011;-67
2021/09/14 07:17:48;;;;;;;;;;;24.60;59.40;;;;;;5084509;28;19930;-66
2021/09/14 07:20:16;;;;;;;;;;;24.60;59.30;;;;;;5082745;28;20019;-67
2021/09/14 07:22:43;;;;;;;;;;;24.60;59.20;;;;;;5080839;28;19967;-67
2021/09/14 07:25:10;;;;;;;;;;;24.60;59.10;;;;;;5085922;28;19974;-66
2021/09/14 07:27:37;;;;;;;;;;;24.70;59.10;;;;;;5076431;28;20007;-67
2021/09/14 07:30:04;;;;;;;;;;;24.70;59.10;;;;;;5073748;28;19967;-66
2021/09/14 07:32:31;;;;;;;;;;;24.70;58.90;;;;;;5076921;28;20291;-67
2021/09/14 07:34:58;;;;;;;;;;;24.80;59.00;;;;;;5088304;28;19924;-67
2021/09/14 07:37:24;;;;;;;;;;;24.80;58.90;;;;;;5074046;28;20260;-67
2021/09/14 07:39:51;;;;;;;;;;;24.80;58.80;;;;;;5073714;28;20340;-67
2021/09/14 07:42:19;;;;;;;;;;;24.80;58.70;;;;;;5107322;28;20015;-67
2021/09/14 07:44:46;;;;;;;;;;;24.90;58.70;;;;;;5091274;28;20031;-67
2021/09/14 07:47:13;;;;;;;;;;;24.90;58.70;;;;;;5090312;28;19924;-66
2021/09/14 07:49:39;;;;;;;;;;;24.90;58.60;;;;;;5073948;28;19994;-66
2021/09/14 07:52:06;;;;;;;;;;;24.90;58.60;;;;;;5082086;28;19924;-67
2021/09/14 07:54:33;;;;;;;;;;;24.90;58.50;;;;;;5071701;28;19924;-66
2021/09/14 07:57:01;;;;;;;;;;;24.90;58.50;;;;;;5074321;28;19964;-66
2021/09/14 07:59:31;;;;;;;;;;;24.90;58.60;;;;;;5074087;28;19924;-67
2021/09/14 08:01:58;;;;;;;;;;;24.90;58.60;;;;;;5074666;28;20359;-65
2021/09/14 08:04:25;;;;;;;;;;;24.90;58.60;;;;;;5087141;28;19930;-66
2021/09/14 08:06:52;;;;;;;;;;;24.90;58.60;;;;;;5078365;28;19932;-67
2021/09/14 08:09:19;;;;;;;;;;;24.90;58.70;;;;;;5084603;28;19946;-67
2021/09/14 08:11:46;;;;;;;;;;;24.90;58.70;;;;;;5081385;28;19931;-67
2021/09/14 08:14:13;;;;;;;;;;;24.90;58.70;;;;;;5073281;28;19962;-66
2021/09/14 08:16:40;;;;;;;;;;;24.90;58.80;;;;;;5072763;28;19928;-67
2021/09/14 08:19:08;;;;;;;;;;;24.90;58.80;;;;;;5074515;28;20041;-67
2021/09/14 08:21:35;;;;;;;;;;;24.90;58.80;;;;;;5080101;28;19930;-65
2021/09/14 08:24:02;;;;;;;;;;;24.90;58.90;;;;;;5087274;28;20022;-66
2021/09/14 08:26:29;;;;;;;;;;;24.80;58.80;;;;;;5075178;28;20038;-66
2021/09/14 08:28:56;;;;;;;;;;;24.80;58.80;;;;;;5075229;28;20010;-67
2021/09/14 08:31:23;;;;;;;;;;;24.80;58.80;;;;;;5073797;28;19932;-66
2021/09/14 08:33:50;;;;;;;;;;;24.80;58.90;;;;;;5075092;28;19924;-68
2021/09/14 08:36:17;;;;;;;;;;;24.80;58.90;;;;;;5106203;28;19963;-70
2021/09/14 08:38:44;;;;;;;;;;;24.80;58.90;;;;;;5105054;28;19982;-67
2021/09/14 08:41:15;;;;;;;;;;;24.80;58.90;;;;;;5072130;28;19925;-67
2021/09/14 08:43:44;;;;;;;;;;;24.80;58.90;;;;;;5075090;28;20068;-67
2021/09/14 08:46:12;;;;;;;;;;;24.80;58.90;;;;;;5072083;28;19932;-68
2021/09/14 08:48:39;;;;;;;;;;;24.80;58.90;;;;;;5090769;28;20007;-68
2021/09/14 08:51:06;;;;;;;;;;;24.80;59.00;;;;;;5074514;28;20438;-68
2021/09/14 08:53:34;;;;;;;;;;;24.80;59.00;;;;;;5072252;28;19925;-68
2021/09/14 08:56:02;;;;;;;;;;;24.80;59.10;;;;;;5086063;28;19924;-68
2021/09/14 08:58:32;;;;;;;;;;;24.70;59.10;;;;;;5088904;28;20338;-66
2021/09/14 09:00:59;;;;;;;;;;;24.80;59.20;;;;;;5076109;28;20007;-66
2021/09/14 09:03:28;;;;;;;;;;;24.80;59.20;;;;;;5073327;28;19988;-66
2021/09/14 09:05:57;;;;;;;;;;;24.70;59.20;;;;;;5083926;28;19924;-66
2021/09/14 09:08:26;;;;;;;;;;;24.70;59.30;;;;;;5079627;28;20394;-68
2021/09/14 09:11:08;;;;;;;;;;;24.70;59.30;;;;;;5075460;28;20343;-66
2021/09/14 09:13:47;;;;;;;;;;;24.70;59.30;;;;;;5089209;28;20368;-66
2021/09/14 09:16:24;;;;;;;;;;;24.70;59.40;;;;;;5082545;28;19924;-66
2021/09/14 09:18:52;;;;;;;;;;;24.70;59.40;;;;;;5077524;28;19978;-66
2021/09/14 09:21:26;;;;;;;;;;;24.70;59.50;;;;;;5078935;28;19930;-66
2021/09/14 09:23:57;;;;;;;;;;;24.70;59.50;;;;;;5078803;28;19963;-66
2021/09/14 09:26:34;;;;;;;;;;;24.70;59.50;;;;;;5076161;28;19925;-67
2021/09/14 09:29:04;;;;;;;;;;;24.80;59.50;;;;;;5079045;28;19974;-67
2021/09/14 09:31:34;;;;;;;;;;;24.80;59.50;;;;;;5077627;28;19970;-68
2021/09/14 09:34:08;;;;;;;;;;;24.80;59.50;;;;;;5087620;28;20338;-66
2021/09/14 09:36:37;;;;;;;;;;;24.80;59.50;;;;;;5093800;28;20006;-67
2021/09/14 09:39:05;;;;;;;;;;;24.80;59.60;;;;;;5083278;28;19990;-66
2021/09/14 09:41:38;;;;;;;;;;;24.80;59.50;;;;;;5076288;28;20012;-67
2021/09/14 09:44:06;;;;;;;;;;;24.80;59.60;;;;;;5084956;28;19966;-67
2021/09/14 09:46:35;;;;;;;;;;;24.80;59.60;;;;;;5093940;28;19967;-68
2021/09/14 09:49:06;;;;;;;;;;;24.80;59.50;;;;;;5085703;28;19978;-67
2021/09/14 09:51:34;;;;;;;;;;;24.80;59.50;;;;;;5081480;28;19951;-67
2021/09/14 09:54:02;;;;;;;;;;;24.80;59.50;;;;;;5078938;28;19963;-67
2021/09/14 09:56:32;;;;;;;;;;;24.90;59.60;;;;;;5075786;28;19924;-67
2021/09/14 09:59:03;;;;;;;;;;;24.80;59.50;;;;;;5076587;28;19995;-67
2021/09/14 10:01:32;;;;;;;;;;;24.80;59.60;;;;;;5075805;28;19933;-67
2021/09/14 10:04:11;;;;;;;;;;;24.80;59.60;;;;;;5076820;28;20002;-67
2021/09/14 10:06:40;;;;;;;;;;;24.80;59.60;;;;;;5080737;28;19924;-65
2021/09/14 10:09:07;;;;;;;;;;;24.80;59.60;;;;;;5088879;28;20011;-68
2021/09/14 10:11:36;;;;;;;;;;;24.80;59.60;;;;;;5076923;28;19925;-67
2021/09/14 10:14:14;;;;;;;;;;;24.90;59.70;;;;;;5077356;28;19987;-67
2021/09/14 10:16:45;;;;;;;;;;;24.90;59.70;;;;;;5093708;28;19964;-65
2021/09/14 10:19:13;;;;;;;;;;;24.90;59.60;;;;;;5091465;28;19971;-65
2021/09/14 10:21:41;;;;;;;;;;;24.90;59.60;;;;;;5075016;28;19924;-65
2021/09/14 10:24:18;;;;;;;;;;;24.90;59.60;;;;;;5075032;28;19999;-69
2021/09/14 10:26:45;;;;;;;;;;;24.90;59.70;;;;;;5075671;28;20299;-67
2021/09/14 10:29:14;;;;;;;;;;;24.90;59.60;;;;;;5092886;28;19975;-66
2021/09/14 10:31:41;;;;;;;;;;;24.90;59.60;;;;;;5057951;28;19951;-67
2021/09/14 10:34:10;;;;;;;;;;;24.90;59.70;;;;;;5094182;28;20007;-68
2021/09/14 10:36:38;;;;;;;;;;;24.90;59.70;;;;;;5075011;28;19924;-66
2021/09/14 10:39:24;;;;;;;;;;;24.90;59.70;;;;;;5092765;28;19927;-66
2021/09/14 10:41:52;;;;;;;;;;;24.90;59.70;;;;;;5073899;28;19928;-67
2021/09/14 10:44:25;;;;;;;;;;;24.90;59.70;;;;;;5075866;28;19960;-66
2021/09/14 10:47:04;;;;;;;;;;;24.90;59.70;;;;;;5076144;28;19925;-66
2021/09/14 10:49:44;;;;;;;;;;;24.90;59.70;;;;;;5073860;28;19967;-67
2021/09/14 10:52:12;;;;;;;;;;;24.90;59.60;;;;;;5076156;28;19924;-68
2021/09/14 10:54:43;;;;;;;;;;;24.90;59.60;;;;;;5084863;28;20012;-66
2021/09/14 10:57:10;;;;;;;;;;;24.90;59.60;;;;;;5075418;28;20015;-67
2021/09/14 10:59:37;;;;;;;;;;;24.90;59.50;;;;;;5092573;28;20026;-69
2021/09/14 11:02:04;;;;;;;;;;;24.90;59.60;;;;;;5075961;28;20341;-67
2021/09/14 11:04:31;;;;;;;;;;;24.90;59.60;;;;;;5108254;27;19956;-66
2021/09/14 11:06:58;;;;;;;;;;;24.90;59.70;;;;;;5075640;28;20444;-66
2021/09/14 11:09:25;;;;;;;;;;;24.90;59.70;;;;;;5074565;28;19931;-67
2021/09/14 11:11:55;;;;;;;;;;;24.90;59.70;;;;;;5075664;28;19967;-66
2021/09/14 11:14:32;;;;;;;;;;;24.90;59.70;;;;;;5074323;28;20334;-67
2021/09/14 11:16:59;;;;;;;;;;;24.90;59.80;;;;;;5088316;28;19971;-67
2021/09/14 11:19:26;;;;;;;;;;;24.90;59.80;;;;;;5080507;28;19971;-66
2021/09/14 11:21:52;;;;;;;;;;;24.90;59.80;;;;;;5085063;28;19974;-66
2021/09/14 11:24:20;;;;;;;;;;;24.90;59.90;;;;;;5092025;28;19975;-67
2021/09/14 11:26:48;;;;;;;;;;;24.80;59.80;;;;;;5081399;28;19925;-66
2021/09/14 11:29:15;;;;;;;;;;;24.90;59.90;;;;;;5073872;28;20388;-66
2021/09/14 11:31:42;;;;;;;;;;;24.80;59.80;;;;;;5075034;28;20004;-66
2021/09/14 11:34:09;;;;;;;;;;;24.80;59.80;;;;;;5073896;28;20007;-66
2021/09/14 11:36:36;;;;;;;;;;;24.90;59.90;;;;;;5075094;28;20288;-67
2021/09/14 11:39:05;;;;;;;;;;;24.80;59.80;;;;;;5075243;28;20288;-66
2021/09/14 11:41:32;;;;;;;;;;;24.80;59.80;;;;;;5076063;28;19928;-66
2021/09/14 11:44:00;;;;;;;;;;;24.80;59.80;;;;;;5072473;28;19931;-66
2021/09/14 11:46:27;;;;;;;;;;;24.80;59.90;;;;;;5075126;28;19934;-66
2021/09/14 11:48:54;;;;;;;;;;;24.80;59.90;;;;;;5073841;28;19994;-67
2021/09/14 11:51:22;;;;;;;;;;;24.80;60.00;;;;;;5073767;28;20011;-67
2021/09/14 11:53:50;;;;;;;;;;;24.80;59.90;;;;;;5055942;28;20016;-66
2021/09/14 11:56:18;;;;;;;;;;;24.80;60.00;;;;;;5073752;28;19994;-67
2021/09/14 11:58:47;;;;;;;;;;;24.80;60.00;;;;;;5091556;28;20597;-66
2021/09/14 12:01:15;;;;;;;;;;;24.80;60.00;;;;;;5091058;28;20012;-69
2021/09/14 12:03:43;;;;;;;;;;;24.80;60.00;;;;;;5073256;28;20327;-67
2021/09/14 12:06:11;;;;;;;;;;;24.80;60.00;;;;;;5073420;28;19955;-67
2021/09/14 12:08:39;;;;;;;;;;;24.80;60.00;;;;;;5089930;28;19924;-66
2021/09/14 12:11:07;;;;;;;;;;;24.80;60.00;;;;;;5091026;28;20339;-66
2021/09/14 12:13:41;;;;;;;;;;;24.80;60.00;;;;;;5075733;28;19931;-66
2021/09/14 12:16:10;;;;;;;;;;;24.80;60.00;;;;;;5074571;28;19974;-66
2021/09/14 12:18:42;;;;;;;;;;;24.80;60.00;;;;;;5086864;28;20284;-66
2021/09/14 12:21:10;;;;;;;;;;;24.70;60.00;;;;;;5089723;28;20363;-66
2021/09/14 12:23:38;;;;;;;;;;;24.80;60.00;;;;;;5088978;28;19931;-67
2021/09/14 12:26:15;;;;;;;;;;;24.80;60.00;;;;;;5089742;28;19946;-66
2021/09/14 12:28:42;;;;;;;;;;;24.80;60.00;;;;;;5090847;28;20007;-66
2021/09/14 12:31:09;;;;;;;;;;;24.80;60.00;;;;;;5080042;28;19975;-66
2021/09/14 12:33:36;;;;;;;;;;;24.80;60.00;;;;;;5072693;28;20010;-66
2021/09/14 12:36:03;;;;;;;;;;;24.80;60.00;;;;;;5081847;28;20330;-66
2021/09/14 12:38:30;;;;;;;;;;;24.70;60.70;;;;;;5082902;28;20015;-66
2021/09/14 12:40:56;;;;;;;;;;;24.70;60.00;;;;;;5073184;28;20015;-66
2021/09/14 12:43:23;;;;;;;;;;;24.70;60.10;;;;;;5071917;28;19960;-66
2021/09/14 12:45:50;;;;;;;;;;;24.70;60.10;;;;;;5074669;28;19955;-66
2021/09/14 12:48:17;;;;;;;;;;;24.70;60.10;;;;;;5072684;28;20020;-66
2021/09/14 12:50:44;;;;;;;;;;;24.70;60.20;;;;;;5074226;28;19986;-67
2021/09/14 12:53:11;;;;;;;;;;;24.70;60.20;;;;;;5072308;28;19932;-67
2021/09/14 12:55:38;;;;;;;;;;;24.70;60.20;;;;;;5061335;28;19974;-66
2021/09/14 12:58:07;;;;;;;;;;;24.70;60.20;;;;;;5088419;28;20215;-67
2021/09/14 13:00:35;;;;;;;;;;;24.70;60.20;;;;;;5056538;28;20377;-67
2021/09/14 13:03:02;;;;;;;;;;;24.70;60.20;;;;;;5072568;28;19924;-67
2021/09/14 13:05:30;;;;;;;;;;;24.70;60.20;;;;;;5072638;28;19955;-67
2021/09/14 13:07:57;;;;;;;;;;;24.70;60.30;;;;;;5089487;28;19924;-66
2021/09/14 13:10:28;;;;;;;;;;;24.70;60.30;;;;;;5090594;28;19931;-66
2021/09/14 13:18:26;;;;;;;;;;;24.60;60.20;;;;;;5089396;28;20358;-67
2021/09/14 13:20:53;;;;;;;;;;;24.60;60.20;;;;;;5072588;28;19925;-67
2021/09/14 13:23:20;;;;;;;;;;;24.60;60.30;;;;;;5072786;28;19931;-67
2021/09/14 13:25:48;;;;;;;;;;;24.60;60.20;;;;;;5072902;28;19968;-66
2021/09/14 13:28:15;;;;;;;;;;;24.60;60.30;;;;;;5073252;28;20368;-66
2021/09/14 13:30:42;;;;;;;;;;;24.60;60.30;;;;;;5073487;28;19931;-66
2021/09/14 13:33:09;;;;;;;;;;;24.60;60.30;;;;;;5072400;28;19991;-66
2021/09/14 13:35:36;;;;;;;;;;;24.60;60.30;;;;;;5072173;28;19924;-67
2021/09/14 13:38:03;;;;;;;;;;;24.60;60.30;;;;;;5072314;28;19981;-67
2021/09/14 13:40:30;;;;;;;;;;;24.60;60.30;;;;;;5073159;28;19971;-67
2021/09/14 13:42:59;;;;;;;;;;;24.60;60.30;;;;;;5078589;28;20015;-67
2021/09/14 13:48:23;;;;;;;;;;;24.60;60.30;;;;;;5072483;28;19924;-67
2021/09/14 13:50:51;;;;;;;;;;;24.60;60.30;;;;;;5071167;28;19971;-67
2021/09/14 13:53:18;;;;;;;;;;;24.60;60.30;;;;;;5083963;28;19924;-67
2021/09/14 13:55:45;;;;;;;;;;;24.60;60.30;;;;;;5080149;28;19972;-67
2021/09/14 13:58:12;;;;;;;;;;;24.60;60.30;;;;;;5075235;28;19946;-66
2021/09/14 14:00:39;;;;;;;;;;;24.60;60.40;;;;;;5074901;28;19931;-67
2021/09/14 14:03:06;;;;;;;;;;;24.60;60.30;;;;;;5075829;28;19924;-66
2021/09/14 14:05:33;;;;;;;;;;;24.60;60.40;;;;;;5075997;28;20015;-66
2021/09/14 14:08:00;;;;;;;;;;;24.60;60.40;;;;;;5083351;28;19924;-67
2021/09/14 14:10:27;;;;;;;;;;;24.60;60.40;;;;;;5090557;28;19935;-66
2021/09/14 14:12:54;;;;;;;;;;;24.60;60.40;;;;;;5075624;28;19975;-67
2021/09/14 14:15:21;;;;;;;;;;;24.60;60.40;;;;;;5075535;28;19978;-66
2021/09/14 14:17:48;;;;;;;;;;;24.60;60.40;;;;;;5077764;28;19924;-66
2021/09/14 14:20:14;;;;;;;;;;;24.60;60.40;;;;;;5075488;28;19986;-66
2021/09/14 14:22:41;;;;;;;;;;;24.60;60.40;;;;;;5059186;28;19979;-66
2021/09/14 14:25:08;;;;;;;;;;;24.60;60.40;;;;;;5074262;28;19924;-67
2021/09/14 14:27:35;;;;;;;;;;;24.60;60.40;;;;;;5093587;28;19924;-63
2021/09/14 14:30:03;;;;;;;;;;;24.60;60.90;;;;;;5077042;28;19925;-57
2021/09/14 14:32:30;;;;;;;;;;;24.70;61.00;;;;;;5076242;28;20011;-63
2021/09/14 14:34:57;;;;;;;;;;;24.60;61.40;;;;;;5091002;28;19924;-63
2021/09/14 14:37:24;;;;;;;;;;;24.60;61.50;;;;;;5092771;28;19967;-63
2021/09/14 14:39:51;;;;;;;;;;;24.60;61.40;;;;;;5079129;28;20357;-64
2021/09/14 14:42:18;;;;;;;;;;;24.60;61.40;;;;;;5075883;28;20038;-64
2021/09/14 14:44:45;;;;;;;;;;;24.60;61.40;;;;;;5083156;28;19924;-63
2021/09/14 14:47:12;;;;;;;;;;;24.60;61.40;;;;;;5080911;28;19951;-63
2021/09/14 14:49:39;;;;;;;;;;;24.60;61.30;;;;;;5074640;28;19970;-63
2021/09/14 14:52:06;;;;;;;;;;;24.60;61.20;;;;;;5057946;28;19971;-63
2021/09/14 14:54:33;;;;;;;;;;;24.60;61.20;;;;;;5074455;28;20439;-63
2021/09/14 14:57:00;;;;;;;;;;;24.60;61.20;;;;;;5082475;28;20402;-63
2021/09/14 14:59:26;;;;;;;;;;;24.60;61.20;;;;;;5085591;28;19928;-63
2021/09/14 15:01:53;;;;;;;;;;;24.60;61.20;;;;;;5074546;28;19960;-63
2021/09/14 15:04:20;;;;;;;;;;;24.60;61.20;;;;;;5079550;28;19966;-63
2021/09/14 15:06:47;;;;;;;;;;;24.60;61.10;;;;;;5090896;28;20430;-64
2021/09/14 15:09:14;;;;;;;;;;;24.60;61.10;;;;;;5090985;28;19924;-63
2021/09/14 15:11:41;;;;;;;;;;;24.60;61.10;;;;;;5091991;28;19963;-63
2021/09/14 15:14:08;;;;;;;;;;;24.60;61.10;;;;;;5090992;28;19966;-63
2021/09/14 15:16:35;;;;;;;;;;;24.60;61.10;;;;;;5058410;28;19929;-63
2021/09/14 15:19:04;;;;;;;;;;;24.60;61.10;;;;;;5093446;28;19924;-64
2021/09/14 15:21:31;;;;;;;;;;;24.60;61.10;;;;;;5092322;28;20265;-63
2021/09/14 15:23:58;;;;;;;;;;;24.60;61.10;;;;;;5074499;28;20011;-63
2021/09/14 15:26:25;;;;;;;;;;;24.60;61.10;;;;;;5092336;28;20027;-63
2021/09/14 15:28:55;;;;;;;;;;;24.60;61.10;;;;;;5090507;28;19935;-63
2021/09/14 15:31:22;;;;;;;;;;;24.60;61.10;;;;;;5076632;28;20449;-64